sensor_id;sensor_type;location;lat;lon;timestamp;temperature;humidity
20398;DHT22;10358;49.590;11.030;2024-02-26T00:02:22;3.70;99.90
20398;DHT22;10358;49.590;11.030;2024-02-26T00:04:48;3.70;99.90
20398;DHT22;10358;49.590;11.030;2024-02-26T00:07:14;3.70;99.90
20398;DHT22;10358;49.590;11.030;2024-02-26T00:09:39;3.60;99.90
20398;DHT22;10358;49.590;11.030;2024-02-26T00:12:05;3.50;99.90
20398;DHT22;10358;49.590;11.030;2024-02-26T00:14:31;3.40;99.90
20398;DHT22;10358;49.590;11.030;2024-02-26T00:16:56;3.30;99.90
20398;DHT22;10358;49.590;11.030;2024-02-26T00:19:22;3.20;99.90
20398;DHT22;10358;49.590;11.030;2024-02-26T00:21:47;3.10;99.90
20398;DHT22;10358;49.590;11.030;2024-02-26T00:24:13;3.10;99.90
20398;DHT22;10358;49.590;11.030;2024-02-26T00:26:39;3.10;99.90
20398;DHT22;10358;49.590;11.030;2024-02-26T00:29:06;3.10;99.90
20398;DHT22;10358;49.590;11.030;2024-02-26T00:31:32;3.00;99.90
20398;DHT22;10358;49.590;11.030;2024-02-26T00:33:57;2.90;99.90
20398;DHT22;10358;49.590;11.030;2024-02-26T00:36:23;3.00;99.90
20398;DHT22;10358;49.590;11.030;2024-02-26T00:38:49;2.90;99.90
20398;DHT22;10358;49.590;11.030;2024-02-26T00:41:22;3.00;99.90
20398;DHT22;10358;49.590;11.030;2024-02-26T00:43:48;2.90;99.90
20398;DHT22;10358;49.590;11.030;2024-02-26T00:46:13;2.90;99.90
20398;DHT22;10358;49.590;11.030;2024-02-26T00:48:39;2.90;99.90
20398;DHT22;10358;49.590;11.030;2024-02-26T00:51:05;2.90;99.90
20398;DHT22;10358;49.590;11.030;2024-02-26T00:53:33;2.90;99.90
20398;DHT22;10358;49.590;11.030;2024-02-26T00:55:58;2.90;99.90
20398;DHT22;10358;49.590;11.030;2024-02-26T00:58:25;2.80;99.90
20398;DHT22;10358;49.590;11.030;2024-02-26T01:00:50;2.80;99.90
20398;DHT22;10358;49.590;11.030;2024-02-26T01:03:17;2.80;99.90
20398;DHT22;10358;49.590;11.030;2024-02-26T01:05:43;2.80;99.90
20398;DHT22;10358;49.590;11.030;2024-02-26T01:08:09;2.80;99.90
20398;DHT22;10358;49.590;11.030;2024-02-26T01:10:34;2.80;99.90
20398;DHT22;10358;49.590;11.030;2024-02-26T01:13:01;2.80;99.90
20398;DHT22;10358;49.590;11.030;2024-02-26T01:15:27;2.70;99.90
20398;DHT22;10358;49.590;11.030;2024-02-26T01:17:53;2.70;99.90
20398;DHT22;10358;49.590;11.030;2024-02-26T01:20:20;2.60;99.90
20398;DHT22;10358;49.590;11.030;2024-02-26T01:22:46;2.50;99.90
20398;DHT22;10358;49.590;11.030;2024-02-26T01:25:13;2.50;99.90
20398;DHT22;10358;49.590;11.030;2024-02-26T01:27:39;2.50;99.90
20398;DHT22;10358;49.590;11.030;2024-02-26T01:30:07;2.50;99.90
20398;DHT22;10358;49.590;11.030;2024-02-26T01:32:33;2.50;99.90
20398;DHT22;10358;49.590;11.030;2024-02-26T01:34:59;2.50;99.90
20398;DHT22;10358;49.590;11.030;2024-02-26T01:37:24;2.40;99.90
20398;DHT22;10358;49.590;11.030;2024-02-26T01:39:50;2.40;99.90
20398;DHT22;10358;49.590;11.030;2024-02-26T01:42:16;2.40;99.90
20398;DHT22;10358;49.590;11.030;2024-02-26T01:44:41;2.40;99.90
20398;DHT22;10358;49.590;11.030;2024-02-26T01:47:11;2.50;99.90
20398;DHT22;10358;49.590;11.030;2024-02-26T01:49:38;2.50;99.90
20398;DHT22;10358;49.590;11.030;2024-02-26T01:52:05;2.50;99.90
20398;DHT22;10358;49.590;11.030;2024-02-26T01:54:33;2.60;99.90
20398;DHT22;10358;49.590;11.030;2024-02-26T01:56:59;2.60;99.90
20398;DHT22;10358;49.590;11.030;2024-02-26T01:59:25;2.60;99.90
20398;DHT22;10358;49.590;11.030;2024-02-26T02:01:55;2.70;99.90
20398;DHT22;10358;49.590;11.030;2024-02-26T02:04:23;2.70;99.90
20398;DHT22;10358;49.590;11.030;2024-02-26T02:06:49;2.70;99.90
20398;DHT22;10358;49.590;11.030;2024-02-26T02:09:15;2.80;99.90
20398;DHT22;10358;49.590;11.030;2024-02-26T02:11:41;2.80;99.90
20398;DHT22;10358;49.590;11.030;2024-02-26T02:14:07;2.90;99.90
20398;DHT22;10358;49.590;11.030;2024-02-26T02:16:32;2.90;99.90
20398;DHT22;10358;49.590;11.030;2024-02-26T02:18:58;2.90;99.90
20398;DHT22;10358;49.590;11.030;2024-02-26T02:21:24;3.00;99.90
20398;DHT22;10358;49.590;11.030;2024-02-26T02:23:50;3.00;99.90
20398;DHT22;10358;49.590;11.030;2024-02-26T02:26:16;3.10;99.90
20398;DHT22;10358;49.590;11.030;2024-02-26T02:28:42;3.10;99.90
20398;DHT22;10358;49.590;11.030;2024-02-26T02:31:08;3.20;99.90
20398;DHT22;10358;49.590;11.030;2024-02-26T02:33:34;3.30;99.90
20398;DHT22;10358;49.590;11.030;2024-02-26T02:36:00;3.30;99.90
20398;DHT22;10358;49.590;11.030;2024-02-26T02:38:26;3.30;99.90
20398;DHT22;10358;49.590;11.030;2024-02-26T02:40:53;3.30;99.90
20398;DHT22;10358;49.590;11.030;2024-02-26T02:43:18;3.30;99.90
20398;DHT22;10358;49.590;11.030;2024-02-26T02:45:44;3.30;99.90
20398;DHT22;10358;49.590;11.030;2024-02-26T02:48:10;3.30;99.90
20398;DHT22;10358;49.590;11.030;2024-02-26T02:50:36;3.20;99.90
20398;DHT22;10358;49.590;11.030;2024-02-26T02:53:02;3.20;99.90
20398;DHT22;10358;49.590;11.030;2024-02-26T02:55:27;3.10;99.90
20398;DHT22;10358;49.590;11.030;2024-02-26T02:57:53;3.10;99.90
20398;DHT22;10358;49.590;11.030;2024-02-26T03:00:19;3.00;99.90
20398;DHT22;10358;49.590;11.030;2024-02-26T03:02:44;3.10;99.90
20398;DHT22;10358;49.590;11.030;2024-02-26T03:05:11;3.10;99.90
20398;DHT22;10358;49.590;11.030;2024-02-26T03:07:37;3.10;99.90
20398;DHT22;10358;49.590;11.030;2024-02-26T03:10:04;3.10;99.90
20398;DHT22;10358;49.590;11.030;2024-02-26T03:12:30;3.10;99.90
20398;DHT22;10358;49.590;11.030;2024-02-26T03:14:56;3.10;99.90
20398;DHT22;10358;49.590;11.030;2024-02-26T03:17:22;3.20;99.90
20398;DHT22;10358;49.590;11.030;2024-02-26T03:19:50;3.20;99.90
20398;DHT22;10358;49.590;11.030;2024-02-26T03:22:19;3.20;99.90
20398;DHT22;10358;49.590;11.030;2024-02-26T03:24:45;3.20;99.90
20398;DHT22;10358;49.590;11.030;2024-02-26T03:27:11;3.20;99.90
20398;DHT22;10358;49.590;11.030;2024-02-26T03:29:37;3.20;99.90
20398;DHT22;10358;49.590;11.030;2024-02-26T03:32:03;3.20;99.90
20398;DHT22;10358;49.590;11.030;2024-02-26T03:34:29;3.20;99.90
20398;DHT22;10358;49.590;11.030;2024-02-26T03:36:56;3.30;99.90
20398;DHT22;10358;49.590;11.030;2024-02-26T03:39:21;3.30;99.90
20398;DHT22;10358;49.590;11.030;2024-02-26T03:41:48;3.30;99.90
20398;DHT22;10358;49.590;11.030;2024-02-26T03:44:13;3.40;99.90
20398;DHT22;10358;49.590;11.030;2024-02-26T03:46:39;3.30;99.90
20398;DHT22;10358;49.590;11.030;2024-02-26T03:49:05;3.30;99.90
20398;DHT22;10358;49.590;11.030;2024-02-26T03:51:31;3.20;99.90
20398;DHT22;10358;49.590;11.030;2024-02-26T03:53:57;3.20;99.90
20398;DHT22;10358;49.590;11.030;2024-02-26T03:56:23;3.20;99.90
20398;DHT22;10358;49.590;11.030;2024-02-26T03:58:49;3.20;99.90
20398;DHT22;10358;49.590;11.030;2024-02-26T04:01:15;3.20;99.90
20398;DHT22;10358;49.590;11.030;2024-02-26T04:03:41;3.20;99.90
20398;DHT22;10358;49.590;11.030;2024-02-26T04:06:10;3.20;99.90
20398;DHT22;10358;49.590;11.030;2024-02-26T04:08:37;3.20;99.90
20398;DHT22;10358;49.590;11.030;2024-02-26T04:11:03;3.10;99.90
20398;DHT22;10358;49.590;11.030;2024-02-26T04:13:33;3.10;99.90
20398;DHT22;10358;49.590;11.030;2024-02-26T04:15:59;3.00;99.90
20398;DHT22;10358;49.590;11.030;2024-02-26T04:18:26;2.90;99.90
20398;DHT22;10358;49.590;11.030;2024-02-26T04:20:52;2.90;99.90
20398;DHT22;10358;49.590;11.030;2024-02-26T04:23:18;2.90;99.90
20398;DHT22;10358;49.590;11.030;2024-02-26T04:25:45;2.80;99.90
20398;DHT22;10358;49.590;11.030;2024-02-26T04:28:10;2.80;99.90
20398;DHT22;10358;49.590;11.030;2024-02-26T04:30:36;2.80;99.90
20398;DHT22;10358;49.590;11.030;2024-02-26T04:33:02;2.80;99.90
20398;DHT22;10358;49.590;11.030;2024-02-26T04:35:27;2.80;99.90
20398;DHT22;10358;49.590;11.030;2024-02-26T04:37:53;2.90;99.90
20398;DHT22;10358;49.590;11.030;2024-02-26T04:40:19;2.90;99.90
20398;DHT22;10358;49.590;11.030;2024-02-26T04:42:44;3.00;99.90
20398;DHT22;10358;49.590;11.030;2024-02-26T04:45:10;3.00;99.90
20398;DHT22;10358;49.590;11.030;2024-02-26T04:47:36;3.00;99.90
20398;DHT22;10358;49.590;11.030;2024-02-26T04:50:01;3.00;99.90
20398;DHT22;10358;49.590;11.030;2024-02-26T04:52:27;3.00;99.90
20398;DHT22;10358;49.590;11.030;2024-02-26T04:54:52;3.00;99.90
20398;DHT22;10358;49.590;11.030;2024-02-26T04:57:18;3.10;99.90
20398;DHT22;10358;49.590;11.030;2024-02-26T04:59:44;3.10;99.90
20398;DHT22;10358;49.590;11.030;2024-02-26T05:02:11;3.00;99.90
20398;DHT22;10358;49.590;11.030;2024-02-26T05:04:37;3.00;99.90
20398;DHT22;10358;49.590;11.030;2024-02-26T05:07:03;3.10;99.90
20398;DHT22;10358;49.590;11.030;2024-02-26T05:09:29;3.10;99.90
20398;DHT22;10358;49.590;11.030;2024-02-26T05:11:54;3.20;99.90
20398;DHT22;10358;49.590;11.030;2024-02-26T05:14:20;3.20;99.90
20398;DHT22;10358;49.590;11.030;2024-02-26T05:16:46;3.20;99.90
20398;DHT22;10358;49.590;11.030;2024-02-26T05:19:12;3.30;99.90
20398;DHT22;10358;49.590;11.030;2024-02-26T05:21:38;3.30;99.90
20398;DHT22;10358;49.590;11.030;2024-02-26T05:24:04;3.30;99.90
20398;DHT22;10358;49.590;11.030;2024-02-26T05:26:30;3.40;99.90
20398;DHT22;10358;49.590;11.030;2024-02-26T05:28:55;3.40;99.90
20398;DHT22;10358;49.590;11.030;2024-02-26T05:31:25;3.40;99.90
20398;DHT22;10358;49.590;11.030;2024-02-26T05:33:50;3.50;99.90
20398;DHT22;10358;49.590;11.030;2024-02-26T05:36:20;3.50;99.90
20398;DHT22;10358;49.590;11.030;2024-02-26T05:38:46;3.60;99.90
20398;DHT22;10358;49.590;11.030;2024-02-26T05:41:12;3.60;99.90
20398;DHT22;10358;49.590;11.030;2024-02-26T05:43:37;3.70;99.90
20398;DHT22;10358;49.590;11.030;2024-02-26T05:46:04;3.70;99.90
20398;DHT22;10358;49.590;11.030;2024-02-26T05:48:29;3.70;99.90
20398;DHT22;10358;49.590;11.030;2024-02-26T05:51:00;3.70;99.90
20398;DHT22;10358;49.590;11.030;2024-02-26T05:53:25;3.70;99.90
20398;DHT22;10358;49.590;11.030;2024-02-26T05:55:51;3.80;99.90
20398;DHT22;10358;49.590;11.030;2024-02-26T05:58:16;3.80;99.90
20398;DHT22;10358;49.590;11.030;2024-02-26T06:00:42;3.80;99.90
20398;DHT22;10358;49.590;11.030;2024-02-26T06:03:07;3.90;99.90
20398;DHT22;10358;49.590;11.030;2024-02-26T06:05:33;3.90;99.90
20398;DHT22;10358;49.590;11.030;2024-02-26T06:07:59;3.90;99.90
20398;DHT22;10358;49.590;11.030;2024-02-26T06:10:24;4.00;99.90
20398;DHT22;10358;49.590;11.030;2024-02-26T06:12:50;3.90;99.90
20398;DHT22;10358;49.590;11.030;2024-02-26T06:15:16;3.90;99.90
20398;DHT22;10358;49.590;11.030;2024-02-26T06:17:42;4.00;99.90
20398;DHT22;10358;49.590;11.030;2024-02-26T06:20:08;4.00;99.90
20398;DHT22;10358;49.590;11.030;2024-02-26T06:22:39;4.00;99.90
20398;DHT22;10358;49.590;11.030;2024-02-26T06:25:04;4.00;99.90
20398;DHT22;10358;49.590;11.030;2024-02-26T06:27:31;4.00;99.90
20398;DHT22;10358;49.590;11.030;2024-02-26T06:29:57;4.10;99.90
20398;DHT22;10358;49.590;11.030;2024-02-26T06:32:22;4.10;99.90
20398;DHT22;10358;49.590;11.030;2024-02-26T06:34:48;4.10;99.90
20398;DHT22;10358;49.590;11.030;2024-02-26T06:37:15;4.20;99.90
20398;DHT22;10358;49.590;11.030;2024-02-26T06:39:41;4.20;99.90
20398;DHT22;10358;49.590;11.030;2024-02-26T06:42:08;4.20;99.90
20398;DHT22;10358;49.590;11.030;2024-02-26T06:44:34;4.30;99.90
20398;DHT22;10358;49.590;11.030;2024-02-26T06:47:00;4.40;99.90
20398;DHT22;10358;49.590;11.030;2024-02-26T06:49:26;4.40;99.90
20398;DHT22;10358;49.590;11.030;2024-02-26T06:51:51;4.40;99.90
20398;DHT22;10358;49.590;11.030;2024-02-26T06:54:20;4.40;99.90
20398;DHT22;10358;49.590;11.030;2024-02-26T06:56:46;4.40;99.90
20398;DHT22;10358;49.590;11.030;2024-02-26T06:59:12;4.50;99.90
20398;DHT22;10358;49.590;11.030;2024-02-26T07:01:39;4.60;99.90
20398;DHT22;10358;49.590;11.030;2024-02-26T07:04:04;4.60;99.90
20398;DHT22;10358;49.590;11.030;2024-02-26T07:06:30;4.60;99.90
20398;DHT22;10358;49.590;11.030;2024-02-26T07:08:55;4.70;99.90
20398;DHT22;10358;49.590;11.030;2024-02-26T07:11:21;4.70;99.90
20398;DHT22;10358;49.590;11.030;2024-02-26T07:13:47;4.70;99.90
20398;DHT22;10358;49.590;11.030;2024-02-26T07:16:12;4.80;99.90
20398;DHT22;10358;49.590;11.030;2024-02-26T07:18:39;4.80;99.90
20398;DHT22;10358;49.590;11.030;2024-02-26T07:21:06;4.90;99.90
20398;DHT22;10358;49.590;11.030;2024-02-26T07:23:31;4.90;99.90
20398;DHT22;10358;49.590;11.030;2024-02-26T07:25:57;4.90;99.90
20398;DHT22;10358;49.590;11.030;2024-02-26T07:28:23;5.00;99.90
20398;DHT22;10358;49.590;11.030;2024-02-26T07:30:49;5.00;99.90
20398;DHT22;10358;49.590;11.030;2024-02-26T07:33:15;5.10;99.90
20398;DHT22;10358;49.590;11.030;2024-02-26T07:35:40;5.10;99.90
20398;DHT22;10358;49.590;11.030;2024-02-26T07:38:06;5.20;99.90
20398;DHT22;10358;49.590;11.030;2024-02-26T07:40:32;5.20;99.90
20398;DHT22;10358;49.590;11.030;2024-02-26T07:42:57;5.30;99.90
20398;DHT22;10358;49.590;11.030;2024-02-26T07:45:23;5.30;99.90
20398;DHT22;10358;49.590;11.030;2024-02-26T07:47:49;5.40;99.90
20398;DHT22;10358;49.590;11.030;2024-02-26T07:50:16;5.60;99.90
20398;DHT22;10358;49.590;11.030;2024-02-26T07:52:42;5.70;99.90
20398;DHT22;10358;49.590;11.030;2024-02-26T07:55:10;5.80;99.90
20398;DHT22;10358;49.590;11.030;2024-02-26T07:57:35;5.90;99.90
20398;DHT22;10358;49.590;11.030;2024-02-26T08:00:02;6.00;99.90
20398;DHT22;10358;49.590;11.030;2024-02-26T08:02:35;6.10;99.90
20398;DHT22;10358;49.590;11.030;2024-02-26T08:05:01;6.20;99.90
20398;DHT22;10358;49.590;11.030;2024-02-26T08:07:26;6.30;99.90
20398;DHT22;10358;49.590;11.030;2024-02-26T08:09:52;6.40;99.90
20398;DHT22;10358;49.590;11.030;2024-02-26T08:12:19;6.50;99.90
20398;DHT22;10358;49.590;11.030;2024-02-26T08:14:44;6.50;99.90
20398;DHT22;10358;49.590;11.030;2024-02-26T08:17:10;6.70;99.90
20398;DHT22;10358;49.590;11.030;2024-02-26T08:19:36;6.80;99.90
20398;DHT22;10358;49.590;11.030;2024-02-26T08:22:02;6.80;99.90
20398;DHT22;10358;49.590;11.030;2024-02-26T08:24:27;6.80;99.90
20398;DHT22;10358;49.590;11.030;2024-02-26T08:26:54;6.90;99.90
20398;DHT22;10358;49.590;11.030;2024-02-26T08:29:20;7.00;99.90
20398;DHT22;10358;49.590;11.030;2024-02-26T08:31:45;7.00;99.90
20398;DHT22;10358;49.590;11.030;2024-02-26T08:34:11;7.00;99.90
20398;DHT22;10358;49.590;11.030;2024-02-26T08:36:37;7.10;99.90
20398;DHT22;10358;49.590;11.030;2024-02-26T08:39:03;7.10;99.90
20398;DHT22;10358;49.590;11.030;2024-02-26T08:41:29;7.20;99.90
20398;DHT22;10358;49.590;11.030;2024-02-26T08:43:54;7.30;99.90
20398;DHT22;10358;49.590;11.030;2024-02-26T08:46:21;7.40;99.90
20398;DHT22;10358;49.590;11.030;2024-02-26T08:48:46;7.40;99.90
20398;DHT22;10358;49.590;11.030;2024-02-26T08:51:13;7.50;99.90
20398;DHT22;10358;49.590;11.030;2024-02-26T08:53:39;7.50;99.90
20398;DHT22;10358;49.590;11.030;2024-02-26T08:56:05;7.50;99.90
20398;DHT22;10358;49.590;11.030;2024-02-26T08:58:31;7.60;99.90
20398;DHT22;10358;49.590;11.030;2024-02-26T09:00:56;7.60;99.90
20398;DHT22;10358;49.590;11.030;2024-02-26T09:03:22;7.70;99.90
20398;DHT22;10358;49.590;11.030;2024-02-26T09:05:48;7.80;99.90
20398;DHT22;10358;49.590;11.030;2024-02-26T09:08:14;7.80;99.90
20398;DHT22;10358;49.590;11.030;2024-02-26T09:10:40;7.90;99.90
20398;DHT22;10358;49.590;11.030;2024-02-26T09:13:05;7.90;99.90
20398;DHT22;10358;49.590;11.030;2024-02-26T09:15:31;8.00;99.90
20398;DHT22;10358;49.590;11.030;2024-02-26T09:17:57;8.00;99.90
20398;DHT22;10358;49.590;11.030;2024-02-26T09:20:22;8.10;99.90
20398;DHT22;10358;49.590;11.030;2024-02-26T09:22:49;8.20;99.90
20398;DHT22;10358;49.590;11.030;2024-02-26T09:25:16;8.20;99.90
20398;DHT22;10358;49.590;11.030;2024-02-26T09:27:42;8.30;99.90
20398;DHT22;10358;49.590;11.030;2024-02-26T09:30:11;8.30;99.90
20398;DHT22;10358;49.590;11.030;2024-02-26T09:32:38;8.40;99.90
20398;DHT22;10358;49.590;11.030;2024-02-26T09:35:05;8.50;99.90
20398;DHT22;10358;49.590;11.030;2024-02-26T09:37:31;8.50;99.90
20398;DHT22;10358;49.590;11.030;2024-02-26T09:39:58;8.60;99.90
20398;DHT22;10358;49.590;11.030;2024-02-26T09:42:26;8.70;99.90
20398;DHT22;10358;49.590;11.030;2024-02-26T09:44:54;8.70;99.90
20398;DHT22;10358;49.590;11.030;2024-02-26T09:47:21;8.80;99.90
20398;DHT22;10358;49.590;11.030;2024-02-26T09:49:53;9.00;99.90
20398;DHT22;10358;49.590;11.030;2024-02-26T09:52:19;9.00;99.90
20398;DHT22;10358;49.590;11.030;2024-02-26T09:54:48;9.10;99.90
20398;DHT22;10358;49.590;11.030;2024-02-26T09:57:15;9.10;99.90
20398;DHT22;10358;49.590;11.030;2024-02-26T09:59:43;9.10;99.90
20398;DHT22;10358;49.590;11.030;2024-02-26T10:02:13;9.00;99.90
20398;DHT22;10358;49.590;11.030;2024-02-26T10:04:42;9.00;99.90
20398;DHT22;10358;49.590;11.030;2024-02-26T10:07:11;8.80;99.90
20398;DHT22;10358;49.590;11.030;2024-02-26T10:09:36;8.60;99.90
20398;DHT22;10358;49.590;11.030;2024-02-26T10:12:03;8.60;99.90
20398;DHT22;10358;49.590;11.030;2024-02-26T10:14:30;8.50;99.90
20398;DHT22;10358;49.590;11.030;2024-02-26T10:16:56;8.50;99.90
20398;DHT22;10358;49.590;11.030;2024-02-26T10:19:26;8.60;99.90
20398;DHT22;10358;49.590;11.030;2024-02-26T10:22:00;8.60;99.90
20398;DHT22;10358;49.590;11.030;2024-02-26T10:24:27;8.90;99.90
20398;DHT22;10358;49.590;11.030;2024-02-26T10:26:54;9.10;99.90
20398;DHT22;10358;49.590;11.030;2024-02-26T10:29:21;9.30;99.90
20398;DHT22;10358;49.590;11.030;2024-02-26T10:31:47;9.50;99.90
20398;DHT22;10358;49.590;11.030;2024-02-26T10:34:15;9.70;99.90
20398;DHT22;10358;49.590;11.030;2024-02-26T10:36:42;9.90;99.90
20398;DHT22;10358;49.590;11.030;2024-02-26T10:39:09;10.10;99.90
20398;DHT22;10358;49.590;11.030;2024-02-26T10:41:36;10.30;99.90
20398;DHT22;10358;49.590;11.030;2024-02-26T10:44:02;10.50;99.90
20398;DHT22;10358;49.590;11.030;2024-02-26T10:46:28;10.60;99.90
20398;DHT22;10358;49.590;11.030;2024-02-26T10:48:54;10.70;99.90
20398;DHT22;10358;49.590;11.030;2024-02-26T10:51:30;10.80;99.90
20398;DHT22;10358;49.590;11.030;2024-02-26T10:53:58;10.80;99.90
20398;DHT22;10358;49.590;11.030;2024-02-26T10:56:34;10.80;99.90
20398;DHT22;10358;49.590;11.030;2024-02-26T10:59:00;10.80;99.90
20398;DHT22;10358;49.590;11.030;2024-02-26T11:01:27;10.80;99.90
20398;DHT22;10358;49.590;11.030;2024-02-26T11:03:57;10.90;99.90
20398;DHT22;10358;49.590;11.030;2024-02-26T11:06:26;10.90;99.90
20398;DHT22;10358;49.590;11.030;2024-02-26T11:08:51;10.90;99.90
20398;DHT22;10358;49.590;11.030;2024-02-26T11:11:18;10.90;99.90
20398;DHT22;10358;49.590;11.030;2024-02-26T11:13:46;11.00;99.90
20398;DHT22;10358;49.590;11.030;2024-02-26T11:16:16;11.00;99.90
20398;DHT22;10358;49.590;11.030;2024-02-26T11:18:43;11.20;99.90
20398;DHT22;10358;49.590;11.030;2024-02-26T11:21:15;11.20;99.90
20398;DHT22;10358;49.590;11.030;2024-02-26T11:23:41;11.20;99.90
20398;DHT22;10358;49.590;11.030;2024-02-26T11:26:08;11.30;99.90
20398;DHT22;10358;49.590;11.030;2024-02-26T11:28:35;11.30;99.90
20398;DHT22;10358;49.590;11.030;2024-02-26T11:31:02;11.30;99.90
20398;DHT22;10358;49.590;11.030;2024-02-26T11:33:29;11.30;99.90
20398;DHT22;10358;49.590;11.030;2024-02-26T11:35:55;11.30;99.90
20398;DHT22;10358;49.590;11.030;2024-02-26T11:38:23;11.40;99.90
20398;DHT22;10358;49.590;11.030;2024-02-26T11:40:50;11.40;99.90
20398;DHT22;10358;49.590;11.030;2024-02-26T11:43:15;11.50;99.90
20398;DHT22;10358;49.590;11.030;2024-02-26T11:48:13;11.50;99.90
20398;DHT22;10358;49.590;11.030;2024-02-26T11:50:42;11.60;99.90
20398;DHT22;10358;49.590;11.030;2024-02-26T11:55:47;11.60;99.90
20398;DHT22;10358;49.590;11.030;2024-02-26T11:58:14;11.60;99.90
20398;DHT22;10358;49.590;11.030;2024-02-26T12:00:42;11.70;99.90
20398;DHT22;10358;49.590;11.030;2024-02-26T12:03:08;11.80;99.90
20398;DHT22;10358;49.590;11.030;2024-02-26T12:05:37;11.90;99.90
20398;DHT22;10358;49.590;11.030;2024-02-26T12:08:06;12.00;99.90
20398;DHT22;10358;49.590;11.030;2024-02-26T12:10:38;12.10;99.90
20398;DHT22;10358;49.590;11.030;2024-02-26T12:13:15;12.20;98.20
20398;DHT22;10358;49.590;11.030;2024-02-26T12:15:46;12.30;98.70
20398;DHT22;10358;49.590;11.030;2024-02-26T12:18:20;12.40;97.90
20398;DHT22;10358;49.590;11.030;2024-02-26T12:20:46;12.50;97.10
20398;DHT22;10358;49.590;11.030;2024-02-26T12:23:16;12.60;97.80
20398;DHT22;10358;49.590;11.030;2024-02-26T12:25:44;12.70;98.00
20398;DHT22;10358;49.590;11.030;2024-02-26T12:28:14;12.80;96.80
20398;DHT22;10358;49.590;11.030;2024-02-26T12:30:40;13.00;95.40
20398;DHT22;10358;49.590;11.030;2024-02-26T12:33:05;13.10;96.30
20398;DHT22;10358;49.590;11.030;2024-02-26T12:35:34;13.00;95.10
20398;DHT22;10358;49.590;11.030;2024-02-26T12:38:02;13.00;94.40
20398;DHT22;10358;49.590;11.030;2024-02-26T12:40:29;13.00;94.10
20398;DHT22;10358;49.590;11.030;2024-02-26T12:42:55;13.00;94.50
20398;DHT22;10358;49.590;11.030;2024-02-26T12:45:21;13.00;94.20
20398;DHT22;10358;49.590;11.030;2024-02-26T12:47:47;12.90;94.50
20398;DHT22;10358;49.590;11.030;2024-02-26T12:50:16;13.00;93.70
20398;DHT22;10358;49.590;11.030;2024-02-26T12:52:46;13.00;92.50
20398;DHT22;10358;49.590;11.030;2024-02-26T12:55:18;13.10;92.80
20398;DHT22;10358;49.590;11.030;2024-02-26T12:57:45;13.10;93.00
20398;DHT22;10358;49.590;11.030;2024-02-26T13:00:16;13.30;92.30
20398;DHT22;10358;49.590;11.030;2024-02-26T13:02:44;13.30;91.90
20398;DHT22;10358;49.590;11.030;2024-02-26T13:05:11;13.40;91.30
20398;DHT22;10358;49.590;11.030;2024-02-26T13:07:44;13.50;90.70
20398;DHT22;10358;49.590;11.030;2024-02-26T13:10:12;13.60;90.80
20398;DHT22;10358;49.590;11.030;2024-02-26T13:12:45;13.60;90.70
20398;DHT22;10358;49.590;11.030;2024-02-26T13:15:17;13.80;89.80
20398;DHT22;10358;49.590;11.030;2024-02-26T13:17:43;14.00;89.30
20398;DHT22;10358;49.590;11.030;2024-02-26T13:20:09;14.20;86.50
20398;DHT22;10358;49.590;11.030;2024-02-26T13:22:37;14.40;87.80
20398;DHT22;10358;49.590;11.030;2024-02-26T13:25:04;14.70;87.40
20398;DHT22;10358;49.590;11.030;2024-02-26T13:27:33;15.00;83.90
20398;DHT22;10358;49.590;11.030;2024-02-26T13:30:11;15.20;82.60
20398;DHT22;10358;49.590;11.030;2024-02-26T13:32:39;15.30;80.60
20398;DHT22;10358;49.590;11.030;2024-02-26T13:35:08;15.40;78.90
20398;DHT22;10358;49.590;11.030;2024-02-26T13:37:35;15.40;78.10
20398;DHT22;10358;49.590;11.030;2024-02-26T13:40:08;15.40;78.40
20398;DHT22;10358;49.590;11.030;2024-02-26T13:42:34;15.60;75.80
20398;DHT22;10358;49.590;11.030;2024-02-26T13:45:00;15.80;77.50
20398;DHT22;10358;49.590;11.030;2024-02-26T13:47:26;16.00;73.80
20398;DHT22;10358;49.590;11.030;2024-02-26T13:49:52;16.10;74.40
20398;DHT22;10358;49.590;11.030;2024-02-26T13:52:17;16.30;74.60
20398;DHT22;10358;49.590;11.030;2024-02-26T13:54:45;16.40;71.20
20398;DHT22;10358;49.590;11.030;2024-02-26T13:57:11;16.40;71.80
20398;DHT22;10358;49.590;11.030;2024-02-26T13:59:38;16.30;70.80
20398;DHT22;10358;49.590;11.030;2024-02-26T14:02:08;16.10;70.30
20398;DHT22;10358;49.590;11.030;2024-02-26T14:04:33;16.10;70.50
20398;DHT22;10358;49.590;11.030;2024-02-26T14:06:59;16.20;71.10
20398;DHT22;10358;49.590;11.030;2024-02-26T14:09:24;16.10;71.00
20398;DHT22;10358;49.590;11.030;2024-02-26T14:11:50;16.00;70.90
20398;DHT22;10358;49.590;11.030;2024-02-26T14:14:15;15.80;69.30
20398;DHT22;10358;49.590;11.030;2024-02-26T14:16:41;15.50;69.70
20398;DHT22;10358;49.590;11.030;2024-02-26T14:19:07;15.40;70.10
20398;DHT22;10358;49.590;11.030;2024-02-26T14:21:32;15.00;70.40
20398;DHT22;10358;49.590;11.030;2024-02-26T14:23:59;14.80;69.70
20398;DHT22;10358;49.590;11.030;2024-02-26T14:26:25;14.60;70.70
20398;DHT22;10358;49.590;11.030;2024-02-26T14:28:50;14.50;72.10
20398;DHT22;10358;49.590;11.030;2024-02-26T14:31:19;14.40;72.50
20398;DHT22;10358;49.590;11.030;2024-02-26T14:33:44;14.20;71.90
20398;DHT22;10358;49.590;11.030;2024-02-26T14:36:11;14.00;72.20
20398;DHT22;10358;49.590;11.030;2024-02-26T14:38:37;13.90;72.70
20398;DHT22;10358;49.590;11.030;2024-02-26T14:41:03;13.80;73.70
20398;DHT22;10358;49.590;11.030;2024-02-26T14:43:29;13.70;72.40
20398;DHT22;10358;49.590;11.030;2024-02-26T14:45:57;13.50;73.50
20398;DHT22;10358;49.590;11.030;2024-02-26T14:48:23;13.50;74.40
20398;DHT22;10358;49.590;11.030;2024-02-26T14:50:49;13.40;75.30
20398;DHT22;10358;49.590;11.030;2024-02-26T14:53:17;13.40;75.10
20398;DHT22;10358;49.590;11.030;2024-02-26T14:55:43;13.40;75.30
20398;DHT22;10358;49.590;11.030;2024-02-26T14:58:10;13.30;75.10
20398;DHT22;10358;49.590;11.030;2024-02-26T15:00:39;13.10;75.50
20398;DHT22;10358;49.590;11.030;2024-02-26T15:03:04;13.10;75.80
20398;DHT22;10358;49.590;11.030;2024-02-26T15:05:32;13.00;75.70
20398;DHT22;10358;49.590;11.030;2024-02-26T15:07:57;13.00;75.70
20398;DHT22;10358;49.590;11.030;2024-02-26T15:10:24;12.80;75.80
20398;DHT22;10358;49.590;11.030;2024-02-26T15:12:50;12.80;76.10
20398;DHT22;10358;49.590;11.030;2024-02-26T15:15:16;12.70;76.70
20398;DHT22;10358;49.590;11.030;2024-02-26T15:17:41;12.60;77.10
20398;DHT22;10358;49.590;11.030;2024-02-26T15:20:07;12.50;77.40
20398;DHT22;10358;49.590;11.030;2024-02-26T15:22:33;12.50;77.30
20398;DHT22;10358;49.590;11.030;2024-02-26T15:24:59;12.40;78.00
20398;DHT22;10358;49.590;11.030;2024-02-26T15:27:25;12.40;78.20